Time;durP1;ratioP1;P1;durP2;ratioP2;P2;SDS_P1;SDS_P2;PMS_P1;PMS_P2;Temp;Humidity;BMP_temperature;BMP_pressure;BME280_temperature;BME280_humidity;BME280_pressure;Samples;Min_cycle;Max_cycle;Signal;HPM_P1;HPM_P2
2022/04/18 00:03:06;;;;;;;10.13;8.13;;;;;;;7.52;43.62;101058.00;8606832;33;20213;-74
2022/04/18 00:08:10;;;;;;;13.38;8.65;;;;;;;7.43;43.94;101051.38;8603956;33;21190;-74
2022/04/18 00:13:13;;;;;;;10.88;8.30;;;;;;;7.34;44.11;101043.88;8601944;33;20236;-74
2022/04/18 00:18:17;;;;;;;12.60;8.55;;;;;;;7.32;44.53;101043.09;8600217;33;20182;-74
2022/04/18 00:23:20;;;;;;;10.65;9.07;;;;;;;7.35;44.41;101050.06;8599228;33;20409;-74
2022/04/18 00:28:23;;;;;;;11.02;8.15;;;;;;;7.27;44.40;101048.72;8599861;33;22000;-74
2022/04/18 00:33:28;;;;;;;15.80;8.77;;;;;;;7.25;44.83;101028.38;8574179;33;21035;-74
2022/04/18 00:38:31;;;;;;;14.45;8.73;;;;;;;7.13;45.33;101024.59;8599315;33;20456;-74
2022/04/18 00:43:40;;;;;;;13.85;9.05;;;;;;;7.07;45.62;101019.56;8579424;33;21030;-73
2022/04/18 00:48:47;;;;;;;11.20;9.10;;;;;;;7.08;45.42;101023.97;8603380;33;21007;-74
2022/04/18 00:53:55;;;;;;;12.40;9.27;;;;;;;7.03;45.63;101013.53;8601775;33;21168;-74
2022/04/18 00:59:00;;;;;;;13.25;9.48;;;;;;;6.94;45.83;101013.19;8595976;33;20408;-74
2022/04/18 01:04:05;;;;;;;14.52;9.55;;;;;;;6.91;46.15;101000.00;8599422;33;20167;-74
2022/04/18 01:09:08;;;;;;;14.45;9.13;;;;;;;6.85;46.23;101001.19;8600854;33;20139;-74
2022/04/18 01:14:12;;;;;;;15.13;9.15;;;;;;;6.73;46.95;101000.06;8578463;33;20428;-74
2022/04/18 01:19:35;;;;;;;13.27;9.38;;;;;;;6.54;47.75;101000.19;8577945;33;20246;-74
2022/04/18 01:30:33;;;;;;;13.68;9.65;;;;;;;6.46;47.49;100994.41;8579187;33;20498;-74
2022/04/18 01:35:40;;;;;;;14.50;9.95;;;;;;;6.43;47.65;100993.72;8574555;33;20438;-74
2022/04/18 01:40:45;;;;;;;13.23;10.00;;;;;;;6.44;48.24;101003.44;8600444;33;20415;-74
2022/04/18 01:45:48;;;;;;;14.63;9.98;;;;;;;6.37;48.32;100995.78;8574319;33;21027;-74
2022/04/18 01:50:59;;;;;;;15.93;10.63;;;;;;;6.34;48.49;100995.94;8576025;33;20458;-74
2022/04/18 01:56:04;;;;;;;15.25;10.63;;;;;;;6.21;48.73;100984.19;8576562;33;20416;-74
2022/04/18 02:01:11;;;;;;;12.65;9.32;;;;;;;6.15;49.38;100985.38;8598991;33;20419;-74
2022/04/18 02:06:15;;;;;;;14.70;9.93;;;;;;;6.15;49.36;100969.38;8601657;33;20220;-74
2022/04/18 02:11:20;;;;;;;15.97;9.70;;;;;;;6.06;49.78;100969.88;8601766;33;20443;-74
2022/04/18 02:16:23;;;;;;;13.57;8.73;;;;;;;6.07;49.80;100973.41;8576381;33;20240;-73
2022/04/18 02:21:29;;;;;;;11.60;8.60;;;;;;;6.08;49.71;100959.97;8574419;33;20337;-74
2022/04/18 02:26:33;;;;;;;12.68;8.45;;;;;;;6.01;50.15;100958.59;8595680;33;20143;-74
2022/04/18 02:37:05;;;;;;;10.77;8.10;;;;;;;6.09;50.19;100942.19;8565972;33;21400;-74
2022/04/18 02:42:11;;;;;;;14.07;9.23;;;;;;;6.13;50.00;100935.72;8564826;33;20446;-73
2022/04/18 02:47:17;;;;;;;13.07;8.68;;;;;;;6.13;50.50;100933.06;8562240;33;20923;-73
2022/04/18 02:52:24;;;;;;;14.57;10.10;;;;;;;6.17;49.94;100922.16;8565130;33;20147;-74
2022/04/18 02:57:28;;;;;;;12.80;8.88;;;;;;;6.10;50.20;100926.09;8593368;33;20158;-74
2022/04/18 03:02:31;;;;;;;14.55;9.32;;;;;;;5.94;50.53;100920.69;8634357;33;20509;-73
2022/04/18 03:07:35;;;;;;;13.95;8.85;;;;;;;5.91;51.09;100909.34;8636610;33;20419;-74
2022/04/18 03:12:41;;;;;;;12.23;8.25;;;;;;;5.92;50.73;100909.28;8617258;33;20446;-74
2022/04/18 03:17:44;;;;;;;14.93;8.75;;;;;;;5.79;51.41;100902.88;8648801;33;20144;-74
2022/04/18 03:22:48;;;;;;;13.40;8.65;;;;;;;5.69;52.04;100901.63;8656920;33;20639;-73
2022/04/18 03:28:03;;;;;;;12.50;9.05;;;;;;;5.67;51.48;100903.50;8631905;33;20430;-73
2022/04/18 03:33:06;;;;;;;13.65;9.43;;;;;;;5.62;51.83;100905.53;8654207;33;20143;-74
2022/04/18 03:43:40;;;;;;;16.65;9.70;;;;;;;5.57;52.03;100905.78;8587861;33;20495;-74
2022/04/18 03:48:43;;;;;;;13.13;9.13;;;;;;;5.51;52.16;100903.41;8617262;33;20635;-73
2022/04/18 03:53:46;;;;;;;13.82;9.90;;;;;;;5.43;52.43;100901.19;8613404;33;20440;-73
2022/04/18 03:58:54;;;;;;;15.53;9.90;;;;;;;5.41;52.73;100903.06;8613473;33;20422;-74
2022/04/18 04:03:57;;;;;;;12.70;9.43;;;;;;;5.41;52.98;100899.53;8616323;33;20488;-74
2022/04/18 04:09:01;;;;;;;17.48;10.52;;;;;;;5.37;52.89;100897.94;8642806;33;20147;-75
2022/04/18 04:14:10;;;;;;;13.82;9.68;;;;;;;5.29;53.44;100903.66;8635921;33;20143;-74
2022/04/18 04:19:14;;;;;;;13.25;9.00;;;;;;;5.31;53.29;100903.59;8611343;33;20167;-75
2022/04/18 04:24:17;;;;;;;17.08;9.93;;;;;;;5.33;53.46;100901.72;8612253;33;20449;-74
2022/04/18 04:29:22;;;;;;;14.55;9.32;;;;;;;5.32;53.33;100899.97;8610870;33;20505;-74
2022/04/18 04:34:47;;;;;;;17.20;10.68;;;;;;;5.27;53.72;100902.91;8611224;33;20942;-74
2022/04/18 04:40:04;;;;;;;14.88;9.07;;;;;;;5.37;53.39;100896.13;8611449;33;20399;-74
2022/04/18 04:45:12;;;;;;;11.63;8.57;;;;;;;5.46;52.96;100895.69;8603094;33;20192;-73
2022/04/18 04:50:35;;;;;;;15.35;9.20;;;;;;;5.49;53.10;100900.84;8628155;33;20649;-74
2022/04/18 04:55:39;;;;;;;14.60;8.85;;;;;;;5.52;53.11;100888.31;8633242;33;20412;-73
2022/04/18 05:00:44;;;;;;;14.68;9.32;;;;;;;5.54;53.20;100881.97;8640253;33;20154;-73
2022/04/18 05:05:56;;;;;;;17.77;10.65;;;;;;;5.61;52.98;100883.34;8643985;33;20270;-73
2022/04/18 05:11:10;;;;;;;13.52;8.32;;;;;;;5.64;53.03;100890.34;8615432;33;20966;-74
2022/04/18 05:16:25;;;;;;;13.13;9.27;;;;;;;5.53;53.61;100888.22;8634278;33;20196;-73
2022/04/18 05:21:41;;;;;;;11.13;8.90;;;;;;;5.48;54.05;100885.78;8612657;33;20262;-74
2022/04/18 05:26:52;;;;;;;13.30;9.02;;;;;;;5.54;54.50;100884.63;8638418;33;20249;-74
2022/04/18 05:31:57;;;;;;;16.05;9.50;;;;;;;5.62;54.78;100884.22;8614251;33;20435;-73
2022/04/18 05:37:02;;;;;;;15.60;9.75;;;;;;;5.72;54.72;100883.66;8635157;33;20147;-74
2022/04/18 05:42:31;;;;;;;12.23;9.38;;;;;;;5.88;55.20;100889.03;8636436;33;20166;-73
2022/04/18 05:47:41;;;;;;;14.07;9.10;;;;;;;5.92;55.32;100879.94;8610300;33;20213;-74
2022/04/18 05:52:45;;;;;;;13.68;9.75;;;;;;;6.22;54.51;100879.19;8612918;33;20419;-74
2022/04/18 05:58:14;;;;;;;13.90;8.90;;;;;;;6.51;54.26;100890.06;8620155;33;20813;-74
2022/04/18 06:03:19;;;;;;;11.70;8.40;;;;;;;6.63;53.42;100889.38;8643998;33;20422;-75
2022/04/18 06:08:23;;;;;;;13.40;8.02;;;;;;;6.94;52.92;100893.88;8621625;33;20434;-73
2022/04/18 06:13:39;;;;;;;11.70;8.57;;;;;;;7.20;52.63;100894.16;8618751;33;20142;-73
2022/04/18 06:18:44;;;;;;;10.93;8.05;;;;;;;7.48;52.34;100883.53;8640523;33;20147;-73
2022/04/18 06:23:48;;;;;;;13.75;8.93;;;;;;;7.71;51.75;100889.31;8617283;33;20416;-74
2022/04/18 06:29:15;;;;;;;14.45;8.70;;;;;;;7.66;51.35;100896.75;8617316;33;20232;-75
2022/04/18 06:34:25;;;;;;;14.82;8.55;;;;;;;7.88;50.59;100891.81;8620726;33;20425;-74
2022/04/18 06:39:31;;;;;;;11.77;7.70;;;;;;;8.17;50.35;100894.47;8639510;33;20427;-74
2022/04/18 06:44:56;;;;;;;11.98;8.15;;;;;;;8.55;50.09;100888.53;8613337;33;20567;-73
2022/04/18 06:50:02;;;;;;;12.13;6.90;;;;;;;8.62;48.58;100889.88;8609226;33;20453;-74
2022/04/18 07:01:12;;;;;;;13.82;7.78;;;;;;;9.19;47.68;100891.50;8613349;33;20298;-74
2022/04/18 07:06:16;;;;;;;10.80;7.15;;;;;;;9.19;47.50;100894.16;8639474;33;20429;-75
2022/04/18 07:11:19;;;;;;;9.85;7.25;;;;;;;9.61;47.77;100902.94;8610242;33;20981;-74
2022/04/18 07:16:23;;;;;;;11.15;7.20;;;;;;;10.02;46.97;100894.72;8607384;33;20154;-74
2022/04/18 07:21:28;;;;;;;9.88;7.50;;;;;;;10.24;46.43;100894.03;8610079;33;20147;-74
2022/04/18 07:26:32;;;;;;;12.63;7.68;;;;;;;10.60;45.95;100895.88;8607284;33;20428;-74
2022/04/18 07:31:35;;;;;;;10.80;6.63;;;;;;;10.98;44.65;100885.97;8631823;33;20144;-74
2022/04/18 07:36:40;;;;;;;8.80;6.80;;;;;;;11.34;44.76;100897.63;8632812;33;20409;-74
2022/04/18 07:41:44;;;;;;;11.43;7.32;;;;;;;11.64;44.75;100889.03;8610288;33;20275;-74
2022/04/18 07:46:47;;;;;;;10.18;6.70;;;;;;;11.94;44.07;100897.41;8608187;33;20476;-73
2022/04/18 07:52:01;;;;;;;8.77;6.38;;;;;;;12.39;43.66;100892.03;8614698;33;20539;-74
2022/04/18 07:57:11;;;;;;;7.03;5.70;;;;;;;12.73;41.84;100886.63;8616875;33;20218;-74
2022/04/18 08:02:28;;;;;;;6.78;5.53;;;;;;;12.80;41.34;100884.25;8613578;33;20968;-74
2022/04/18 08:08:01;;;;;;;7.97;5.78;;;;;;;12.99;41.49;100888.97;8616343;33;20211;-75
2022/04/18 08:13:05;;;;;;;7.28;5.10;;;;;;;13.12;41.03;100888.81;8637408;33;20293;-74
2022/04/18 08:18:12;;;;;;;8.07;5.32;;;;;;;13.65;40.29;100878.03;8632525;33;20427;-74
2022/04/18 08:23:27;;;;;;;6.25;5.10;;;;;;;13.92;38.76;100883.72;8616431;33;20422;-75
2022/04/18 08:28:48;;;;;;;7.35;5.68;;;;;;;14.08;38.86;100877.00;8648270;33;20932;-74
2022/04/18 08:33:51;;;;;;;6.22;4.75;;;;;;;14.47;38.41;100880.72;8644846;33;20415;-74
2022/04/18 08:38:56;;;;;;;6.97;4.78;;;;;;;14.25;38.14;100873.63;8636208;33;20163;-74
2022/04/18 08:44:19;;;;;;;8.00;4.30;;;;;;;14.78;37.16;100873.41;8613101;33;20139;-74
2022/04/18 08:54:49;;;;;;;5.07;4.10;;;;;;;15.29;34.59;100874.13;8611593;33;20135;-74
2022/04/18 08:59:59;;;;;;;6.32;4.15;;;;;;;15.13;35.32;100861.16;8637608;33;21042;-74
2022/04/18 09:05:03;;;;;;;5.72;3.80;;;;;;;15.63;34.50;100863.72;8640097;33;20424;-74
2022/04/18 09:10:09;;;;;;;4.80;4.30;;;;;;;16.00;33.68;100853.94;8617615;33;20965;-75
2022/04/18 09:15:13;;;;;;;4.70;3.60;;;;;;;16.46;33.57;100858.44;8617611;33;20182;-74
2022/04/18 09:20:22;;;;;;;3.88;3.50;;;;;;;16.42;31.97;100842.63;8639943;33;20175;-75
2022/04/18 09:25:30;;;;;;;4.57;3.47;;;;;;;16.09;32.46;100847.59;8639129;33;20218;-74
2022/04/18 09:30:34;;;;;;;4.53;3.58;;;;;;;16.18;33.13;100840.41;8641849;33;20527;-74
2022/04/18 09:35:40;;;;;;;5.55;4.00;;;;;;;16.42;32.63;100834.50;8617262;33;20152;-73
2022/04/18 09:40:46;;;;;;;4.93;3.75;;;;;;;16.94;31.40;100821.13;8651094;33;20143;-74
2022/04/18 09:45:52;;;;;;;4.05;3.20;;;;;;;17.38;31.98;100816.59;8653563;33;20147;-74
2022/04/18 09:51:01;;;;;;;3.40;2.92;;;;;;;17.56;30.06;100810.31;8630678;33;20439;-74
2022/04/18 09:56:17;;;;;;;3.58;3.20;;;;;;;17.96;31.11;100809.66;8629162;33;20173;-74
2022/04/18 10:01:20;;;;;;;5.30;3.30;;;;;;;17.93;29.86;100797.25;8653951;33;20707;-74
2022/04/18 10:06:24;;;;;;;3.40;3.10;;;;;;;17.98;29.57;100801.38;8647924;33;21041;-74
2022/04/18 10:11:29;;;;;;;3.70;2.80;;;;;;;18.40;28.69;100795.94;8643105;33;20500;-74
2022/04/18 10:16:33;;;;;;;4.40;3.45;;;;;;;18.61;29.10;100786.47;8648008;33;20461;-74
2022/04/18 10:21:38;;;;;;;3.78;3.17;;;;;;;18.89;27.96;100789.75;8639849;33;20257;-74
2022/04/18 10:27:36;;;;;;;4.60;3.25;;;;;;;18.85;26.32;100791.13;8639432;33;20139;-75
2022/04/18 10:32:39;;;;;;;7.15;4.05;;;;;;;18.89;26.95;100774.28;8637369;33;20655;-75
2022/04/18 10:37:44;;;;;;;3.17;2.88;;;;;;;19.04;26.86;100760.84;8634957;33;20567;-75
2022/04/18 10:42:48;;;;;;;3.58;2.75;;;;;;;18.98;28.21;100761.53;8633059;33;20903;-74
2022/04/18 10:48:10;;;;;;;3.88;2.97;;;;;;;19.13;27.68;100764.41;8633000;33;20177;-75
2022/04/18 10:53:20;;;;;;;4.35;3.05;;;;;;;19.38;26.60;100738.84;8610331;33;20421;-75
2022/04/18 10:58:27;;;;;;;3.78;3.17;;;;;;;19.32;27.27;100734.09;8630577;33;20918;-74
2022/04/18 11:03:46;;;;;;;4.03;3.08;;;;;;;19.25;27.76;100733.06;8630409;33;20139;-74
2022/04/18 11:08:59;;;;;;;3.88;2.95;;;;;;;19.98;27.11;100726.56;8631681;33;20432;-74
2022/04/18 11:14:15;;;;;;;3.07;2.50;;;;;;;20.88;25.97;100726.00;8633097;33;20424;-74
2022/04/18 11:19:20;;;;;;;3.38;2.90;;;;;;;20.47;24.87;100728.22;8632328;33;20513;-74
2022/04/18 11:24:34;;;;;;;2.95;2.15;;;;;;;21.06;25.08;100725.69;8613975;33;20464;-74
2022/04/18 11:29:40;;;;;;;5.07;2.85;;;;;;;22.34;23.49;100713.59;8635664;33;20170;-76
2022/04/18 11:34:46;;;;;;;2.33;1.92;;;;;;;23.17;22.24;100708.50;8638078;33;20704;-75
2022/04/18 11:39:51;;;;;;;3.95;2.35;;;;;;;22.95;21.38;100700.28;8637246;33;20236;-74
2022/04/18 11:44:58;;;;;;;3.92;2.90;;;;;;;22.75;20.91;100705.59;8629692;33;20587;-75
2022/04/18 11:50:07;;;;;;;2.80;2.10;;;;;;;23.58;20.32;100702.22;8630553;33;20143;-76
2022/04/18 11:55:14;;;;;;;3.22;1.88;;;;;;;23.62;21.77;100698.06;8630071;33;20150;-74
2022/04/18 12:06:44;;;;;;;2.67;2.20;;;;;;;23.90;20.71;100688.91;8633157;33;20159;-74
2022/04/18 12:11:05;;;;;;;3.92;2.28;;;;;;;25.51;20.75;100666.88;8643367;33;20181;-75
2022/04/18 12:16:09;;;;;;;3.38;2.60;;;;;;;24.87;20.43;100666.50;8641417;33;20238;-74
2022/04/18 12:21:13;;;;;;;2.90;2.28;;;;;;;24.71;20.11;100658.69;8643105;33;20535;-74
2022/04/18 12:26:16;;;;;;;3.15;2.20;;;;;;;25.24;20.34;100646.84;8641267;33;20492;-74
2022/04/18 12:31:22;;;;;;;1.52;1.42;;;;;;;25.02;17.54;100652.56;8639089;33;21056;-75
2022/04/18 12:36:33;;;;;;;3.05;1.73;;;;;;;24.76;16.34;100645.19;8639554;33;20850;-74
2022/04/18 12:41:38;;;;;;;2.75;1.60;;;;;;;24.39;18.77;100643.88;8650552;33;20427;-74
2022/04/18 12:46:43;;;;;;;1.92;1.83;;;;;;;24.17;18.83;100626.75;8646885;33;20538;-74
2022/04/18 12:51:51;;;;;;;3.28;1.98;;;;;;;23.88;19.90;100620.53;8641570;33;20460;-75
2022/04/18 12:56:54;;;;;;;2.17;1.98;;;;;;;23.56;18.81;100625.69;8640199;33;20592;-74
2022/04/18 13:02:09;;;;;;;2.33;2.05;;;;;;;23.10;19.30;100620.75;8640569;33;20408;-75
2022/04/18 13:07:13;;;;;;;3.30;1.88;;;;;;;23.82;19.77;100607.66;8641840;33;20546;-74
2022/04/18 13:12:16;;;;;;;3.22;2.50;;;;;;;23.79;19.36;100602.59;8641951;33;20235;-74
2022/04/18 13:17:20;;;;;;;2.28;2.00;;;;;;;23.19;19.47;100600.38;8649589;33;20238;-74
2022/04/18 13:22:24;;;;;;;3.47;2.25;;;;;;;23.18;21.53;100595.13;8654503;33;20445;-73
2022/04/18 13:27:28;;;;;;;2.63;1.92;;;;;;;23.66;20.38;100579.50;8654482;33;20484;-73
2022/04/18 13:32:33;;;;;;;2.45;2.00;;;;;;;23.13;20.26;100579.28;8656623;33;20408;-73
2022/04/18 13:37:36;;;;;;;2.85;1.80;;;;;;;22.77;20.78;100565.78;8658468;33;20242;-73
2022/04/18 13:42:39;;;;;;;3.40;1.90;;;;;;;23.20;21.88;100558.25;8653976;33;20471;-72
2022/04/18 13:47:45;;;;;;;2.20;1.95;;;;;;;22.25;21.84;100547.88;8664454;33;20970;-73
2022/04/18 13:52:48;;;;;;;2.72;1.80;;;;;;;23.85;21.68;100547.75;8659737;33;20212;-73
2022/04/18 13:57:51;;;;;;;4.15;2.35;;;;;;;23.24;22.55;100536.78;8655163;33;20670;-72
2022/04/18 14:02:55;;;;;;;3.38;2.10;;;;;;;23.56;22.97;100529.72;8656426;33;20226;-72
2022/04/18 14:08:00;;;;;;;2.75;2.38;;;;;;;23.26;22.11;100531.06;8654631;33;20448;-73
2022/04/18 14:13:03;;;;;;;4.20;2.45;;;;;;;23.56;22.48;100523.38;8617722;33;20349;-73
2022/04/18 14:23:29;;;;;;;2.50;2.20;;;;;;;23.44;22.81;100521.22;8643107;33;21096;-73
2022/04/18 14:28:32;;;;;;;3.72;2.42;;;;;;;23.61;23.17;100508.03;8638618;33;20135;-73
2022/04/18 14:33:37;;;;;;;2.88;2.40;;;;;;;23.98;22.44;100507.69;8639711;33;20441;-72
2022/04/18 14:38:40;;;;;;;2.78;2.22;;;;;;;23.97;22.36;100506.84;8638044;33;20512;-72
2022/04/18 14:43:43;;;;;;;2.42;1.98;;;;;;;24.37;20.99;100486.78;8638381;33;20412;-73
2022/04/18 14:48:52;;;;;;;2.38;1.90;;;;;;;23.80;22.61;100492.66;8638985;33;20424;-74
2022/04/18 14:53:58;;;;;;;2.30;2.08;;;;;;;23.75;21.89;100488.81;8648383;28;20205;31
2022/04/18 14:59:01;;;;;;;2.45;1.98;;;;;;;24.20;22.16;100489.94;8465551;33;20432;-73
2022/04/18 15:04:06;;;;;;;2.75;2.00;;;;;;;24.44;21.57;100480.25;8471327;34;20489;-73
2022/04/18 15:09:09;;;;;;;1.90;1.67;;;;;;;24.51;21.53;100482.97;8469792;34;20248;-73
2022/04/18 15:14:12;;;;;;;3.72;2.25;;;;;;;24.19;21.50;100479.16;8469799;34;20141;-73
2022/04/18 15:19:18;;;;;;;4.32;2.10;;;;;;;24.17;21.75;100473.06;8469823;34;20448;-73
2022/04/18 15:24:27;;;;;;;2.63;2.03;;;;;;;24.20;21.17;100462.50;8469728;34;20545;-73
2022/04/18 15:29:32;;;;;;;3.65;2.20;;;;;;;23.75;21.29;100461.41;8469936;34;20405;-73
2022/04/18 15:34:39;;;;;;;3.42;2.50;;;;;;;23.57;21.52;100457.38;8447039;34;20454;-73
2022/04/18 15:39:42;;;;;;;3.45;2.58;;;;;;;23.83;22.25;100463.97;8469201;34;20493;-72
2022/04/18 15:44:45;;;;;;;2.47;2.28;;;;;;;23.65;22.54;100456.34;8469354;34;20643;-72
2022/04/18 15:49:52;;;;;;;4.53;2.67;;;;;;;23.76;21.90;100455.75;8467546;34;20539;-72
2022/04/18 15:54:55;;;;;;;3.10;2.50;;;;;;;23.63;22.14;100455.69;8468572;34;20893;-72
2022/04/18 15:59:58;;;;;;;4.07;2.35;;;;;;;22.98;21.77;100460.75;8472561;34;20472;-73
2022/04/18 16:05:03;;;;;;;3.90;2.47;;;;;;;23.15;22.23;100445.69;8472486;34;20872;-73
2022/04/18 16:10:08;;;;;;;5.13;2.95;;;;;;;23.35;22.41;100442.16;8469173;34;20248;-72
2022/04/18 16:15:11;;;;;;;3.60;2.55;;;;;;;23.19;22.01;100438.72;8461257;34;20431;-72
2022/04/18 16:20:16;;;;;;;3.42;2.38;;;;;;;22.89;22.51;100446.38;8462330;34;20192;-72
2022/04/18 16:25:20;;;;;;;3.40;2.65;;;;;;;22.96;22.94;100443.69;8463427;34;20298;-72
2022/04/18 16:35:45;;;;;;;7.13;3.03;;;;;;;21.94;23.17;100436.94;8465864;34;20145;-72
2022/04/18 16:46:09;;;;;;;6.85;3.88;;;;;;;22.04;24.79;100434.69;8465681;33;20279;-72
2022/04/18 16:51:14;;;;;;;7.10;4.57;;;;;;;21.59;24.83;100435.97;8466833;34;20134;-72
2022/04/18 16:56:17;;;;;;;5.15;3.92;;;;;;;21.22;26.06;100440.59;8470390;34;20204;-72
2022/04/18 17:01:20;;;;;;;5.20;3.90;;;;;;;21.12;25.28;100427.28;8470973;34;20206;-72
2022/04/18 17:06:25;;;;;;;7.53;4.65;;;;;;;21.02;25.25;100424.81;8478739;34;20923;-72
2022/04/18 17:11:28;;;;;;;5.25;4.05;;;;;;;20.84;25.68;100427.09;8484605;34;20160;-72
2022/04/18 17:16:31;;;;;;;7.20;3.80;;;;;;;20.15;25.84;100421.91;8486731;34;20215;-72
2022/04/18 17:21:36;;;;;;;6.30;4.18;;;;;;;19.93;26.06;100423.66;8487329;34;20191;-72
2022/04/18 17:26:39;;;;;;;5.05;3.50;;;;;;;20.81;25.30;100423.91;8487381;34;20419;-72
2022/04/18 17:31:42;;;;;;;4.45;3.78;;;;;;;19.77;25.44;100421.09;8488697;34;20547;-72
2022/04/18 17:36:47;;;;;;;6.35;4.43;;;;;;;18.56;26.18;100434.16;8483001;34;20152;-72
2022/04/18 17:42:10;;;;;;;5.68;4.25;;;;;;;17.91;26.84;100423.44;8482462;34;20138;-72
2022/04/18 17:47:13;;;;;;;4.47;3.72;;;;;;;17.46;27.50;100424.78;8480826;34;20197;-72
2022/04/18 17:52:19;;;;;;;5.72;4.35;;;;;;;16.96;28.73;100434.66;8481013;34;20189;-72
2022/04/18 17:57:22;;;;;;;5.60;4.18;;;;;;;16.48;28.74;100428.03;8479652;34;20149;-72
2022/04/18 18:02:25;;;;;;;5.00;3.83;;;;;;;15.96;29.63;100432.56;8481552;34;20152;-72
2022/04/18 18:07:30;;;;;;;6.22;4.10;;;;;;;15.46;30.55;100434.88;8492259;34;20206;-72
2022/04/18 18:12:33;;;;;;;6.30;4.32;;;;;;;15.31;31.02;100439.13;8504004;34;21086;-72
2022/04/18 18:17:37;;;;;;;7.03;5.50;;;;;;;15.12;31.75;100450.06;8486725;34;20556;-72
2022/04/18 18:22:42;;;;;;;7.70;5.15;;;;;;;14.86;32.47;100444.53;8468044;34;20942;-72
2022/04/18 18:27:45;;;;;;;8.38;5.68;;;;;;;14.69;32.97;100435.38;8467128;34;20419;-72
2022/04/18 18:32:48;;;;;;;8.25;5.70;;;;;;;14.52;33.29;100443.25;8476854;34;20546;-72
2022/04/18 18:37:54;;;;;;;12.48;9.57;;;;;;;14.38;33.89;100441.00;8476010;34;21067;-72
2022/04/18 18:42:58;;;;;;;11.45;7.90;;;;;;;14.22;34.47;100452.44;8476597;33;20574;-72
2022/04/18 18:48:03;;;;;;;19.25;12.52;;;;;;;14.04;35.21;100446.06;8451932;34;20912;-72
2022/04/18 18:53:08;;;;;;;28.00;17.73;;;;;;;13.92;35.53;100446.25;8478185;34;20433;-72
2022/04/18 18:58:11;;;;;;;13.13;9.02;;;;;;;13.79;36.34;100453.78;8475848;34;20149;-72
2022/04/18 19:03:15;;;;;;;14.20;8.77;;;;;;;13.58;37.07;100461.22;8453312;34;20145;-72
2022/04/18 19:08:19;;;;;;;15.68;9.50;;;;;;;13.47;37.43;100464.91;8474665;34;20625;-72
2022/04/18 19:13:22;;;;;;;15.25;9.13;;;;;;;13.43;38.03;100476.94;8477303;34;20417;-72
2022/04/18 19:29:11;;;;;;;15.43;9.48;;;;;;;13.23;38.36;100466.09;8473686;34;20446;-72
2022/04/18 19:34:17;;;;;;;14.70;8.05;;;;;;;13.08;38.64;100470.19;8475387;33;20194;-72
2022/04/18 19:39:21;;;;;;;13.95;10.05;;;;;;;12.97;38.91;100462.22;8472354;34;20404;-72
2022/04/18 19:44:24;;;;;;;13.27;8.88;;;;;;;12.85;39.85;100469.56;8469860;34;20426;-72
2022/04/18 19:49:28;;;;;;;13.10;8.32;;;;;;;12.68;39.92;100462.13;8469016;34;20576;-72
2022/04/18 19:54:33;;;;;;;14.23;8.63;;;;;;;12.56;40.60;100456.84;8469132;34;21042;-71
2022/04/18 19:59:36;;;;;;;14.85;9.18;;;;;;;12.54;40.33;100463.34;8467539;34;20504;-72
2022/04/18 20:04:41;;;;;;;13.30;9.18;;;;;;;12.52;40.24;100450.00;8468811;34;20440;-72
2022/04/18 20:09:45;;;;;;;16.88;9.35;;;;;;;12.34;40.20;100455.19;8468858;34;20152;-73
2022/04/18 20:14:48;;;;;;;14.00;8.43;;;;;;;12.23;40.62;100452.53;8468752;34;20443;-72
2022/04/18 20:19:51;;;;;;;14.15;8.50;;;;;;;12.16;40.89;100454.06;8460684;34;20928;-72
2022/04/18 20:24:56;;;;;;;15.27;8.93;;;;;;;12.05;40.85;100444.22;8462006;34;20460;-72
2022/04/18 20:29:59;;;;;;;13.27;7.70;;;;;;;11.95;41.07;100448.66;8466135;34;20154;-72
2022/04/18 20:35:02;;;;;;;11.98;7.25;;;;;;;11.77;41.45;100447.56;8464501;34;20244;-73
2022/04/18 20:40:08;;;;;;;13.73;7.35;;;;;;;11.68;41.61;100449.19;8463713;34;20421;-73
2022/04/18 20:45:12;;;;;;;11.68;6.88;;;;;;;11.56;41.88;100447.53;8464321;34;20350;-72
2022/04/18 20:50:15;;;;;;;11.35;6.80;;;;;;;11.60;41.84;100448.97;8464170;33;20445;-73
2022/04/18 21:00:41;;;;;;;11.48;6.70;;;;;;;11.35;42.51;100445.66;8641421;33;20139;-73
2022/04/18 21:05:45;;;;;;;10.60;7.03;;;;;;;11.34;42.83;100443.97;8641378;33;20435;-73
2022/04/18 21:10:50;;;;;;;11.30;6.68;;;;;;;11.33;42.49;100436.88;8642089;33;20553;-73
2022/04/18 21:15:53;;;;;;;10.63;6.57;;;;;;;11.11;42.94;100434.22;8643511;33;20300;-74
2022/04/18 21:20:56;;;;;;;11.07;6.53;;;;;;;11.00;43.12;100432.44;8643660;33;20150;-74
2022/04/18 21:26:00;;;;;;;13.90;6.90;;;;;;;10.85;43.64;100429.16;8642343;33;20143;-74
2022/04/18 21:31:03;;;;;;;11.38;6.63;;;;;;;10.79;43.85;100433.19;8643474;33;21182;-74
2022/04/18 21:36:07;;;;;;;13.80;8.43;;;;;;;10.71;43.75;100432.97;8642465;33;21067;-73
2022/04/18 21:41:11;;;;;;;15.93;7.97;;;;;;;10.72;44.01;100431.97;8642925;33;20215;-74
2022/04/18 21:46:14;;;;;;;9.07;6.78;;;;;;;10.70;44.41;100428.56;8642381;33;20151;-74
2022/04/18 21:51:17;;;;;;;14.07;7.70;;;;;;;10.57;44.48;100436.75;8643503;33;20147;-74
2022/04/18 21:56:22;;;;;;;12.73;7.22;;;;;;;10.49;45.08;100432.97;8642201;33;20413;-75
2022/04/18 22:01:25;;;;;;;10.50;6.88;;;;;;;10.29;45.00;100432.75;8637990;33;20182;-74
2022/04/18 22:06:28;;;;;;;10.98;6.72;;;;;;;9.76;45.89;100432.38;8651772;33;20143;-75
2022/04/18 22:11:33;;;;;;;14.50;7.38;;;;;;;9.68;46.44;100435.66;8657755;33;20436;-75
2022/04/18 22:16:39;;;;;;;12.73;7.18;;;;;;;9.84;46.70;100429.94;8650381;33;20666;-75
2022/04/18 22:27:04;;;;;;;10.82;6.80;;;;;;;9.88;46.39;100422.56;8611092;33;20395;-74
2022/04/18 22:32:09;;;;;;;11.93;7.10;;;;;;;9.70;46.69;100420.28;8611956;33;20602;-75
2022/04/18 22:37:12;;;;;;;11.27;7.63;;;;;;;9.78;46.79;100414.31;8635787;33;20246;-74
2022/04/18 22:42:17;;;;;;;10.10;7.05;;;;;;;9.50;47.74;100413.78;8638183;33;20545;-74
2022/04/18 22:47:23;;;;;;;12.23;8.43;;;;;;;9.30;48.34;100411.75;8638130;33;20135;-74
2022/04/18 22:52:28;;;;;;;13.23;8.02;;;;;;;9.06;49.11;100409.09;8638869;33;20154;-75
2022/04/18 22:57:33;;;;;;;10.02;6.68;;;;;;;8.67;50.50;100403.00;8635639;33;20164;-74
2022/04/18 23:02:37;;;;;;;11.80;7.32;;;;;;;8.72;49.86;100399.97;8638412;33;20132;-75
2022/04/18 23:07:40;;;;;;;11.30;7.32;;;;;;;8.86;49.19;100407.88;8636043;33;20158;-74
2022/04/18 23:12:50;;;;;;;11.07;7.07;;;;;;;8.94;48.31;100397.47;8639190;33;20420;-75
2022/04/18 23:17:54;;;;;;;11.10;7.35;;;;;;;8.60;48.81;100391.88;8641846;33;20900;-75
2022/04/18 23:22:57;;;;;;;11.88;7.28;;;;;;;8.58;49.31;100385.81;8645351;33;20447;-75
2022/04/18 23:28:01;;;;;;;10.23;7.25;;;;;;;8.88;48.99;100383.63;8640537;33;20238;-75
2022/04/18 23:33:05;;;;;;;13.70;7.30;;;;;;;8.59;48.89;100390.16;8615540;33;20500;-74
2022/04/18 23:38:08;;;;;;;10.60;7.10;;;;;;;7.91;51.27;100395.91;8638730;33;20183;-73
2022/04/18 23:43:13;;;;;;;14.90;9.80;;;;;;;7.73;52.13;100403.38;8638846;33;20606;-74
2022/04/18 23:48:17;;;;;;;14.45;8.77;;;;;;;8.05;51.40;100385.09;8641371;33;20220;-74
2022/04/18 23:53:22;;;;;;;15.27;10.00;;;;;;;8.24;51.01;100371.25;8644314;33;20143;-75
2022/04/18 23:58:27;;;;;;;11.85;8.15;;;;;;;8.49;50.57;100366.84;8642228;33;20572;-73
